This is the latest recevied weather packets stored in our database for station/object KB9HUO. If no packets are shown the sender has not sent any weather packets the latest 10 day(s).
| Time | Temp. | Humidity | Pressure | Rain* | Wind** | Luminosity | Snow |
|---|---|---|---|---|---|---|---|
| 1777750159 | 13.33° C | 48% | 1018.7 hPa | 0 mm | - | 217 W/m² | - |
| 1777749856 | 13.33° C | 49% | 1018.7 hPa | 0 mm | - | 180 W/m² | - |
| 1777749554 | 12.78° C | 52% | 1018.7 hPa | 0 mm | - | 240 W/m² | - |
| 1777749251 | 12.22° C | 51% | 1018.8 hPa | 0 mm | - | 219 W/m² | - |
| 1777748949 | 12.22° C | 52% | 1018.9 hPa | 0 mm | - | 147 W/m² | - |
| 1777748646 | 12.22° C | 51% | 1019 hPa | 0 mm | - | 98 W/m² | - |
| 1777748341 | 12.22° C | 54% | 1018.8 hPa | 0 mm | - | 124 W/m² | - |
| 1777748037 | 12.22° C | 54% | 1018.8 hPa | 0 mm | - | 122 W/m² | - |
| 1777747735 | 12.22° C | 53% | 1018.9 hPa | 0 mm | - | 81 W/m² | - |
| 1777747430 | 12.78° C | 55% | 1018.9 hPa | 0 mm | - | 96 W/m² | - |
| 1777747127 | 12.78° C | 50% | 1018.7 hPa | 0 mm | - | 147 W/m² | - |
| 1777746823 | 13.33° C | 50% | 1019 hPa | 0 mm | - | 170 W/m² | - |
| 1777746518 | 13.33° C | 49% | 1019 hPa | 0 mm | - | 207 W/m² | - |
| 1777746214 | 13.89° C | 49% | 1018.8 hPa | 0 mm | - | 247 W/m² | - |
| 1777745911 | 13.89° C | 47% | 1018.9 hPa | 0 mm | - | 199 W/m² | - |
| 1777745610 | 13.33° C | 53% | 1019.1 hPa | 0 mm | - | 780 W/m² | - |
| 1777745307 | 12.78° C | 51% | 1019.2 hPa | 0 mm | - | 815 W/m² | - |
| 1777745004 | 12.78° C | 52% | 1019.1 hPa | 0 mm | - | 554 W/m² | - |
| 1777744700 | 12.78° C | 49% | 1019.2 hPa | 0 mm | - | 226 W/m² | - |
| 1777744394 | 12.78° C | 52% | 1019.1 hPa | 0 mm | - | 277 W/m² | - |
| 1777744091 | 13.33° C | 53% | 1019.4 hPa | 0 mm | - | 284 W/m² | - |
| 1777743783 | 13.33° C | 56% | 1019.5 hPa | 0 mm | - | 574 W/m² | - |
| 1777743479 | 12.78° C | 53% | 1019.7 hPa | 0 mm | - | 795 W/m² | - |
| 1777743177 | 13.33° C | 52% | 1019.4 hPa | 0 mm | - | 203 W/m² | - |
| 1777742875 | 13.33° C | 57% | 1019.4 hPa | 0 mm | - | 806 W/m² | - |
* Rain latest hour (hover to see other rain measurements)
** Current wind speed in m/s (hover to see current wind gust speed)